Time;durP1;ratioP1;P1;durP2;ratioP2;P2;SDS_P1;SDS_P2;PMS_P1;PMS_P2;Temp;Humidity;BMP_temperature;BMP_pressure;BME280_temperature;BME280_humidity;BME280_pressure;Samples;Min_cycle;Max_cycle;Signal;HPM_P1;HPM_P2
2023/07/19 00:01:21;;;;;;;14.00;8.10;;;;;;;20.63;100.00;99813.26;104984;1260;66906;-62
2023/07/19 00:03:50;;;;;;;5.00;3.10;;;;;;;20.61;100.00;99813.05;104988;1261;72986;-61
2023/07/19 00:06:18;;;;;;;6.10;3.50;;;;;;;20.59;100.00;99810.17;105097;1257;61818;-61
2023/07/19 00:08:45;;;;;;;8.10;5.40;;;;;;;20.59;100.00;99813.30;105198;1257;60541;-62
2023/07/19 00:11:13;;;;;;;6.90;3.90;;;;;;;20.57;100.00;99813.61;104958;1256;74296;-60
2023/07/19 00:13:41;;;;;;;10.00;5.30;;;;;;;20.55;100.00;99815.10;105164;1259;67301;-61
2023/07/19 00:16:09;;;;;;;5.40;3.10;;;;;;;20.52;100.00;99815.13;105124;1256;73250;-60
2023/07/19 00:18:36;;;;;;;5.10;3.00;;;;;;;20.51;100.00;99811.84;105172;1259;60463;-61
2023/07/19 00:21:04;;;;;;;7.30;6.50;;;;;;;20.50;100.00;99810.30;105269;1256;60628;-67
2023/07/19 00:23:33;;;;;;;12.40;8.50;;;;;;;20.50;100.00;99813.33;104966;1257;73816;-71
2023/07/19 00:26:01;;;;;;;5.40;3.50;;;;;;;20.50;100.00;99810.57;105066;1260;66035;-59
2023/07/19 00:28:28;;;;;;;8.00;6.40;;;;;;;20.48;100.00;99811.86;104790;1256;71489;-62
2023/07/19 00:31:03;;;;;;;5.10;3.20;;;;;;;20.48;100.00;99809.79;104875;1256;61773;-62
2023/07/19 00:33:31;;;;;;;7.00;4.70;;;;;;;20.47;100.00;99808.79;104833;1256;60307;-67
2023/07/19 00:35:59;;;;;;;10.70;8.20;;;;;;;20.43;100.00;99808.50;105283;1257;73897;-62
2023/07/19 00:38:27;;;;;;;4.40;3.00;;;;;;;20.36;100.00;99808.58;105058;1258;66962;-60
2023/07/19 00:40:55;;;;;;;5.40;3.10;;;;;;;20.29;100.00;99811.03;104956;1256;72645;-63
2023/07/19 00:43:23;;;;;;;6.70;4.30;;;;;;;20.20;100.00;99813.27;105158;1256;61802;-73
2023/07/19 00:45:54;;;;;;;5.10;4.00;;;;;;;20.10;100.00;99815.38;104935;1256;60547;-61
2023/07/19 00:48:24;;;;;;;7.50;5.40;;;;;;;20.01;100.00;99812.46;104930;1257;72620;-63
2023/07/19 00:50:53;;;;;;;9.10;4.20;;;;;;;19.91;100.00;99808.66;105011;1257;66777;-69
2023/07/19 00:53:20;;;;;;;4.50;3.10;;;;;;;19.81;100.00;99811.08;105090;1263;72746;-77
2023/07/19 00:55:50;;;;;;;6.60;3.70;;;;;;;19.72;100.00;99810.28;104986;1256;62299;-60
2023/07/19 00:58:18;;;;;;;4.80;3.30;;;;;;;19.64;100.00;99812.25;105167;1256;60486;-61
2023/07/19 01:00:46;;;;;;;6.50;3.70;;;;;;;19.57;100.00;99816.48;105212;1256;73942;-66
2023/07/19 01:03:14;;;;;;;5.70;3.50;;;;;;;19.50;100.00;99816.38;104980;1256;67744;-68
2023/07/19 01:05:43;;;;;;;6.20;3.50;;;;;;;19.44;100.00;99826.33;104853;1256;73175;-60
2023/07/19 01:08:11;;;;;;;6.10;4.00;;;;;;;19.39;100.00;99824.33;104932;1261;61666;-60
2023/07/19 01:10:38;;;;;;;4.80;3.80;;;;;;;19.34;100.00;99826.81;105095;1256;60524;-60
2023/07/19 01:13:11;;;;;;;5.00;3.50;;;;;;;19.28;100.00;99827.25;104954;1255;72661;-60
2023/07/19 01:15:42;;;;;;;5.90;4.20;;;;;;;19.22;100.00;99823.75;105124;1257;65548;-66
2023/07/19 01:18:09;;;;;;;8.60;3.90;;;;;;;19.18;100.00;99827.10;104949;1256;72720;-59
2023/07/19 01:20:37;;;;;;;4.80;3.90;;;;;;;19.13;100.00;99827.58;105104;1259;60540;-62
2023/07/19 01:23:05;;;;;;;5.10;4.50;;;;;;;19.09;100.00;99828.07;105006;1257;60671;-60
2023/07/19 01:25:33;;;;;;;6.10;4.50;;;;;;;19.05;100.00;99827.81;105088;1256;73871;-67
2023/07/19 01:28:01;;;;;;;6.10;4.10;;;;;;;19.01;100.00;99826.51;105031;1257;66879;-62
2023/07/19 01:30:28;;;;;;;7.80;4.70;;;;;;;18.98;100.00;99826.10;104989;1256;73146;-62
2023/07/19 01:32:56;;;;;;;7.40;4.40;;;;;;;18.94;100.00;99823.80;105228;1257;61802;-62
2023/07/19 01:35:24;;;;;;;7.10;4.90;;;;;;;18.91;100.00;99823.88;105045;1260;60512;-61
2023/07/19 01:37:52;;;;;;;8.40;4.80;;;;;;;18.89;100.00;99820.73;104941;1259;73882;-61
2023/07/19 01:40:22;;;;;;;7.30;4.60;;;;;;;18.86;100.00;99821.70;104993;1260;66920;-64
2023/07/19 01:42:51;;;;;;;9.10;4.90;;;;;;;18.84;100.00;99822.89;104966;1256;72713;-62
2023/07/19 01:45:20;;;;;;;5.70;4.40;;;;;;;18.82;100.00;99823.19;105189;1256;62265;-81
2023/07/19 01:47:47;;;;;;;8.10;5.00;;;;;;;18.78;100.00;99822.89;104903;1256;60319;-60
2023/07/19 01:50:16;;;;;;;8.10;5.20;;;;;;;18.75;100.00;99822.33;105012;1257;73915;-65
2023/07/19 01:52:44;;;;;;;7.70;5.40;;;;;;;18.72;100.00;99822.60;104960;1256;66896;-61
2023/07/19 01:55:12;;;;;;;10.60;4.70;;;;;;;18.69;100.00;99826.93;105202;1262;73141;-82
2023/07/19 01:57:39;;;;;;;9.00;4.80;;;;;;;18.65;100.00;99827.98;104647;1261;61755;-63
2023/07/19 02:00:08;;;;;;;6.20;5.10;;;;;;;18.61;100.00;99827.80;104926;1256;60356;-59
2023/07/19 02:02:45;;;;;;;8.20;5.60;;;;;;;18.59;100.00;99826.23;105003;1256;72630;-60
2023/07/19 02:05:14;;;;;;;7.00;4.80;;;;;;;18.59;100.00;99826.33;105047;1258;66655;-78
2023/07/19 02:07:41;;;;;;;9.40;5.30;;;;;;;18.66;100.00;99830.17;104733;1257;73214;-60
2023/07/19 02:10:09;;;;;;;7.20;5.10;;;;;;;18.81;100.00;99832.42;104828;1259;61069;-60
2023/07/19 02:12:37;;;;;;;7.90;4.40;;;;;;;19.01;100.00;99837.12;105092;1256;60466;-61
2023/07/19 02:15:05;;;;;;;5.70;4.70;;;;;;;19.24;100.00;99834.02;105299;1257;73927;-81
2023/07/19 02:17:35;;;;;;;6.80;4.00;;;;;;;19.51;100.00;99833.11;105070;1256;67644;-60
2023/07/19 02:20:04;;;;;;;8.00;4.70;;;;;;;19.84;100.00;99835.59;104877;1256;71467;-61
2023/07/19 02:22:32;;;;;;;6.40;4.90;;;;;;;20.14;100.00;99832.97;105009;1262;60434;-60
2023/07/19 02:25:01;;;;;;;9.50;8.20;;;;;;;20.38;100.00;99825.90;104620;1256;60639;-69
2023/07/19 02:27:32;;;;;;;10.20;4.80;;;;;;;20.65;100.00;99823.75;104937;1262;73838;-61
2023/07/19 02:38:09;;;;;;;7.20;6.20;;;;;;;21.72;100.00;99808.99;102139;1291;619263;-65
2023/07/19 02:40:37;;;;;;;6.90;6.20;;;;;;;21.90;100.00;99807.43;104589;1270;60768;-60
2023/07/19 02:43:05;;;;;;;7.50;5.60;;;;;;;22.26;100.00;99802.63;105044;1265;59366;-65
2023/07/19 02:45:35;;;;;;;7.50;5.80;;;;;;;22.62;100.00;99798.44;105462;1259;72525;-60
2023/07/19 02:48:03;;;;;;;7.90;5.40;;;;;;;22.71;100.00;99792.23;104789;1260;67047;-77
2023/07/19 02:50:30;;;;;;;9.80;5.40;;;;;;;22.55;100.00;99783.50;104960;1260;192887;-62
2023/07/19 02:52:57;;;;;;;5.30;4.70;;;;;;;22.41;100.00;99780.32;105295;1254;62142;-61
2023/07/19 02:55:25;;;;;;;7.10;5.20;;;;;;;22.45;100.00;99778.98;105315;1257;60144;-63
2023/07/19 02:57:52;;;;;;;6.50;4.50;;;;;;;22.84;100.00;99779.20;105457;1255;71060;-72
2023/07/19 03:00:19;;;;;;;13.80;5.90;;;;;;;23.42;100.00;99776.17;105149;1259;66054;-64
2023/07/19 03:02:53;;;;;;;7.40;4.70;;;;;;;24.11;100.00;99765.80;105112;1256;72535;-63
2023/07/19 03:05:22;;;;;;;7.90;4.20;;;;;;;24.78;100.00;99756.14;105179;1260;60879;-61
2023/07/19 03:07:49;;;;;;;5.30;3.90;;;;;;;25.40;100.00;99751.50;104983;1262;59618;-61
2023/07/19 03:10:16;;;;;;;7.10;3.90;;;;;;;25.97;100.00;99743.08;105118;1259;73098;-62
2023/07/19 03:12:45;;;;;;;6.60;4.20;;;;;;;26.62;100.00;99738.05;104898;1261;67154;-62
2023/07/19 03:15:12;;;;;;;6.00;4.10;;;;;;;27.41;100.00;99734.92;105321;1259;72700;-61
2023/07/19 03:17:40;;;;;;;4.00;3.60;;;;;;;28.22;100.00;99735.29;105229;1254;59739;-62
2023/07/19 03:20:08;;;;;;;8.00;3.80;;;;;;;28.87;100.00;99733.73;105642;1259;59681;-62
2023/07/19 03:22:35;;;;;;;4.80;3.50;;;;;;;29.36;100.00;99737.57;105298;1254;71871;-61
2023/07/19 03:25:03;;;;;;;5.30;3.10;;;;;;;29.82;100.00;99745.21;105365;1254;67698;-60
2023/07/19 03:27:30;;;;;;;4.10;3.10;;;;;;;30.36;100.00;99737.60;105494;1255;72564;-65
2023/07/19 03:29:57;;;;;;;4.00;2.80;;;;;;;31.00;100.00;99739.70;105040;1260;59643;-63
2023/07/19 03:32:24;;;;;;;5.90;2.90;;;;;;;31.50;95.85;99742.21;105427;1254;60235;-65
2023/07/19 03:34:51;;;;;;;5.10;2.80;;;;;;;31.86;84.19;99737.60;105096;1260;72387;-61
2023/07/19 03:37:19;;;;;;;5.10;2.40;;;;;;;32.00;76.73;99738.81;105096;1256;66266;-66
2023/07/19 03:39:46;;;;;;;4.90;2.50;;;;;;;32.00;66.15;99736.10;104636;1257;65129;-63
2023/07/19 03:42:13;;;;;;;3.80;2.60;;;;;;;31.88;65.03;99740.14;104960;1256;60310;-61
2023/07/19 03:44:41;;;;;;;4.10;2.40;;;;;;;31.80;63.28;99741.39;105017;1260;59570;-64
2023/07/19 03:47:08;;;;;;;2.90;2.00;;;;;;;31.68;64.58;99739.95;104993;1257;71498;-63
2023/07/19 03:49:35;;;;;;;5.20;2.40;;;;;;;31.80;65.33;99747.58;105189;1256;65743;-67
2023/07/19 03:52:02;;;;;;;3.00;2.30;;;;;;;32.13;64.19;99751.37;105086;1257;71126;-64
2023/07/19 03:54:30;;;;;;;3.20;2.20;;;;;;;32.67;58.93;99754.48;105109;1260;60245;-74
2023/07/19 03:56:57;;;;;;;4.30;2.40;;;;;;;33.16;54.67;99750.95;104999;1256;60447;-65
2023/07/19 03:59:24;;;;;;;4.90;2.50;;;;;;;33.62;50.60;99751.08;105095;1256;73017;-72
2023/07/19 04:01:51;;;;;;;4.00;2.60;;;;;;;33.98;48.24;99751.69;104945;1257;59544;-64
2023/07/19 04:04:18;;;;;;;3.60;2.60;;;;;;;34.21;45.07;99756.98;105017;1256;64198;-66
2023/07/19 04:06:45;;;;;;;3.50;2.40;;;;;;;34.34;43.89;99758.27;105033;1263;60592;-72
2023/07/19 04:09:12;;;;;;;4.50;2.40;;;;;;;34.65;41.94;99750.27;104991;1259;59630;-63
2023/07/19 04:11:39;;;;;;;4.10;2.80;;;;;;;34.91;39.67;99745.73;105232;1257;64245;-65
2023/07/19 04:14:07;;;;;;;3.20;2.60;;;;;;;34.84;39.71;99747.62;104760;1257;59624;-66
2023/07/19 04:16:35;;;;;;;2.90;2.20;;;;;;;35.00;39.91;99749.47;105028;1256;64056;-66
2023/07/19 04:19:04;;;;;;;4.80;2.30;;;;;;;35.24;38.28;99751.20;105014;1261;61062;-67
2023/07/19 04:21:32;;;;;;;3.30;2.40;;;;;;;35.29;38.05;99749.37;105158;1259;59641;-67
2023/07/19 04:24:00;;;;;;;4.60;2.80;;;;;;;35.39;37.17;99750.99;105612;1259;64909;-66
2023/07/19 04:26:28;;;;;;;4.90;2.50;;;;;;;35.56;36.66;99754.54;104987;1261;59251;-65
2023/07/19 04:28:57;;;;;;;3.70;2.30;;;;;;;35.94;35.00;99759.23;105044;1257;62894;-78
2023/07/19 04:31:25;;;;;;;3.70;2.60;;;;;;;35.93;33.62;99759.61;105067;1260;59514;-66
2023/07/19 04:33:51;;;;;;;3.40;2.70;;;;;;;35.72;34.46;99762.52;105126;1256;59798;-68
2023/07/19 04:36:20;;;;;;;3.80;2.60;;;;;;;35.89;34.86;99763.88;105246;1257;63100;-67
2023/07/19 04:38:49;;;;;;;3.40;2.30;;;;;;;36.03;33.43;99766.41;105262;1259;59507;-75
2023/07/19 04:41:17;;;;;;;5.10;3.00;;;;;;;35.88;33.17;99769.12;105255;1259;62829;-66
2023/07/19 04:43:45;;;;;;;5.30;2.50;;;;;;;35.87;33.45;99769.80;105602;1256;59660;-75
2023/07/19 04:46:13;;;;;;;3.70;2.70;;;;;;;35.83;33.41;99769.52;105257;1260;59622;-65
2023/07/19 04:48:40;;;;;;;3.40;2.40;;;;;;;35.98;33.26;99770.84;105215;1257;64266;-65
2023/07/19 04:51:07;;;;;;;4.50;3.30;;;;;;;36.44;32.38;99774.03;105217;1259;59635;-65
2023/07/19 04:53:34;;;;;;;4.00;2.40;;;;;;;36.83;31.23;99774.03;104945;1257;62952;-68
2023/07/19 04:56:01;;;;;;;3.10;2.30;;;;;;;37.08;30.22;99777.10;105290;1256;59750;-71
2023/07/19 04:58:31;;;;;;;4.00;2.50;;;;;;;36.95;29.78;99779.84;104920;1257;60077;-66
2023/07/19 05:01:08;;;;;;;4.00;2.20;;;;;;;36.62;29.64;99780.23;105334;1260;64579;-66
2023/07/19 05:03:37;;;;;;;3.50;2.30;;;;;;;36.49;29.91;99781.09;105036;1256;59603;-66
2023/07/19 05:06:03;;;;;;;5.10;2.40;;;;;;;36.42;30.01;99776.41;104995;1257;64613;-66
2023/07/19 05:08:33;;;;;;;2.60;2.30;;;;;;;36.38;30.33;99776.50;105247;1257;59750;-66
2023/07/19 05:11:01;;;;;;;2.60;2.40;;;;;;;36.56;29.99;99771.62;105272;1259;59637;-66
2023/07/19 05:13:29;;;;;;;2.70;1.90;;;;;;;36.78;29.53;99772.48;105221;1256;64415;-66
2023/07/19 05:15:56;;;;;;;3.10;2.70;;;;;;;37.17;29.09;99770.41;105199;1256;59724;-68
2023/07/19 05:18:24;;;;;;;3.50;2.60;;;;;;;37.34;28.85;99766.98;105089;1256;64688;-65
2023/07/19 05:20:52;;;;;;;4.60;2.30;;;;;;;37.45;28.92;99764.84;105033;1259;59614;-65
2023/07/19 05:23:20;;;;;;;3.20;2.10;;;;;;;37.63;28.77;99759.63;105210;1256;59641;-63
2023/07/19 05:25:48;;;;;;;2.80;2.30;;;;;;;37.86;28.36;99755.73;105438;1259;64273;-70
2023/07/19 05:28:17;;;;;;;3.50;2.50;;;;;;;38.00;27.92;99754.23;105163;1255;59727;-64
2023/07/19 05:30:44;;;;;;;3.70;2.20;;;;;;;37.86;28.00;99751.64;105185;1257;64664;-68
2023/07/19 05:33:11;;;;;;;3.60;2.40;;;;;;;37.73;28.21;99751.55;105093;1259;59714;-64
2023/07/19 05:35:39;;;;;;;3.10;2.40;;;;;;;37.77;28.48;99756.15;105364;1256;59616;-65
2023/07/19 05:38:06;;;;;;;3.90;2.20;;;;;;;37.98;28.73;99758.08;105247;1256;62981;-63
2023/07/19 05:40:33;;;;;;;2.90;2.40;;;;;;;38.28;28.22;99755.30;105593;1253;59820;-63
2023/07/19 05:43:00;;;;;;;4.10;2.30;;;;;;;38.33;27.58;99757.87;105371;1256;63984;-64
2023/07/19 05:45:28;;;;;;;3.60;2.40;;;;;;;38.33;27.34;99759.11;105343;1253;59769;-62
2023/07/19 05:47:55;;;;;;;4.60;2.90;;;;;;;38.49;27.51;99760.05;105454;1253;59496;-63
2023/07/19 05:50:22;;;;;;;3.60;2.80;;;;;;;38.65;26.64;99761.35;105375;1255;63043;-64
2023/07/19 05:52:50;;;;;;;2.80;2.30;;;;;;;38.59;26.48;99761.41;105702;1253;59541;-71
2023/07/19 05:55:17;;;;;;;3.60;2.90;;;;;;;38.65;26.60;99761.98;105522;1251;62940;-61
2023/07/19 05:57:44;;;;;;;3.20;2.80;;;;;;;38.78;26.40;99763.17;105755;1251;59720;-68
2023/07/19 06:00:24;;;;;;;4.00;2.90;;;;;;;38.88;26.38;99764.31;105554;1255;59986;-61
2023/07/19 06:02:52;;;;;;;3.40;2.70;;;;;;;38.95;26.37;99764.79;105508;1251;63105;-62
2023/07/19 06:05:24;;;;;;;4.40;2.70;;;;;;;39.08;26.34;99767.77;105406;1252;59723;-68
2023/07/19 06:07:51;;;;;;;3.90;2.70;;;;;;;39.11;26.51;99773.92;105545;1252;62814;-62
2023/07/19 06:10:19;;;;;;;3.20;2.80;;;;;;;39.17;26.23;99768.87;105502;1257;59681;-63
2023/07/19 06:12:46;;;;;;;3.50;2.80;;;;;;;39.09;25.94;99769.48;106006;1250;59570;-66
2023/07/19 06:15:13;;;;;;;5.10;3.00;;;;;;;39.01;26.36;99766.12;105310;1253;64453;-66
2023/07/19 06:17:43;;;;;;;3.40;3.00;;;;;;;39.05;27.03;99768.84;105606;1251;59630;-63
2023/07/19 06:20:10;;;;;;;5.50;2.80;;;;;;;39.10;26.89;99774.00;105434;1253;62906;-62
2023/07/19 06:22:37;;;;;;;3.20;2.70;;;;;;;38.97;27.01;99773.20;105653;1253;59768;-67
2023/07/19 06:25:05;;;;;;;4.50;3.00;;;;;;;38.90;26.07;99772.80;105336;1256;59536;-61
2023/07/19 06:27:33;;;;;;;4.30;3.40;;;;;;;38.47;25.77;99772.33;105402;1252;64262;-61
2023/07/19 06:30:00;;;;;;;5.70;2.60;;;;;;;37.79;26.78;99774.73;105409;1256;59935;-61
2023/07/19 06:32:28;;;;;;;3.30;2.70;;;;;;;37.27;27.40;99779.29;105401;1253;62904;-62
2023/07/19 06:34:55;;;;;;;3.30;2.50;;;;;;;36.72;27.76;99779.48;105257;1253;59989;-61
2023/07/19 06:37:22;;;;;;;3.70;2.70;;;;;;;35.99;28.60;99774.33;105522;1253;59628;-65
2023/07/19 06:39:49;;;;;;;3.50;2.40;;;;;;;35.47;29.94;99780.19;105080;1257;64732;-61
2023/07/19 06:42:16;;;;;;;3.10;2.10;;;;;;;35.47;30.38;99782.04;105418;1256;60000;-63
2023/07/19 06:44:44;;;;;;;3.30;2.50;;;;;;;35.62;29.66;99780.04;105844;1253;63758;-68
2023/07/19 06:47:11;;;;;;;4.60;1.90;;;;;;;35.72;29.63;99783.23;105149;1258;60468;-63
2023/07/19 06:49:38;;;;;;;3.00;2.10;;;;;;;35.70;29.56;99778.85;105390;1256;60556;-66
2023/07/19 06:52:05;;;;;;;2.90;2.00;;;;;;;35.75;29.79;99783.11;105356;1256;65091;-63
2023/07/19 06:54:33;;;;;;;3.10;1.80;;;;;;;35.96;29.68;99782.50;105563;1252;60304;-67
2023/07/19 06:57:00;;;;;;;4.70;2.40;;;;;;;36.24;29.22;99782.44;105357;1253;64123;-65
2023/07/19 06:59:28;;;;;;;2.90;1.80;;;;;;;36.52;29.56;99781.58;105422;1251;60416;-67
2023/07/19 07:01:55;;;;;;;3.70;1.80;;;;;;;36.92;29.56;99782.96;105401;1257;60290;-63
2023/07/19 07:04:22;;;;;;;3.20;2.10;;;;;;;37.24;28.27;99786.17;105393;1256;65256;-62
2023/07/19 07:06:50;;;;;;;5.30;2.00;;;;;;;37.34;27.67;99784.70;105517;1253;60427;-64
2023/07/19 07:09:17;;;;;;;2.80;2.00;;;;;;;37.26;27.79;99793.48;105622;1255;71625;-66
2023/07/19 07:11:44;;;;;;;2.80;2.10;;;;;;;37.25;27.10;99787.73;105353;1251;60378;-63
2023/07/19 07:14:12;;;;;;;2.70;1.80;;;;;;;37.24;26.47;99788.58;105411;1256;60346;-63
2023/07/19 07:16:40;;;;;;;2.60;1.80;;;;;;;37.14;26.48;99792.06;105917;1252;64085;-65
2023/07/19 07:19:06;;;;;;;3.00;1.90;;;;;;;36.94;26.60;99788.50;105243;1253;60473;-63
2023/07/19 07:21:34;;;;;;;4.80;1.90;;;;;;;36.73;27.22;99785.39;105398;1253;62731;-62
2023/07/19 07:24:01;;;;;;;3.90;2.10;;;;;;;36.58;27.32;99783.60;105496;1253;60523;-63
2023/07/19 07:26:28;;;;;;;2.60;1.90;;;;;;;36.39;27.32;99779.85;105517;1256;59639;-63
2023/07/19 07:28:55;;;;;;;4.10;1.80;;;;;;;36.28;27.72;99779.71;105250;1251;64014;-65
2023/07/19 07:31:22;;;;;;;2.90;1.80;;;;;;;36.25;27.98;99783.94;105371;1253;60418;-67
2023/07/19 07:33:49;;;;;;;2.70;1.80;;;;;;;36.27;28.01;99781.33;105395;1254;63848;-62
2023/07/19 07:36:17;;;;;;;2.30;1.60;;;;;;;36.34;27.97;99779.86;105520;1256;60451;-62
2023/07/19 07:38:44;;;;;;;3.90;2.00;;;;;;;36.44;27.73;99776.65;105781;1253;60412;-66
2023/07/19 07:41:12;;;;;;;4.20;1.50;;;;;;;36.42;27.02;99778.56;105061;1256;65754;-63
2023/07/19 07:43:40;;;;;;;3.70;1.60;;;;;;;36.13;26.60;99778.25;105419;1256;67302;-63
2023/07/19 07:46:07;;;;;;;3.20;1.70;;;;;;;35.53;26.51;99777.17;105405;1256;64088;-62
2023/07/19 07:48:34;;;;;;;4.20;1.60;;;;;;;34.87;27.79;99775.44;105698;1254;60332;-67
2023/07/19 07:51:01;;;;;;;2.20;1.30;;;;;;;34.75;28.56;99774.05;105688;1257;60307;-61
2023/07/19 07:53:29;;;;;;;3.80;1.70;;;;;;;34.54;28.96;99771.85;105642;1252;66979;-66
2023/07/19 07:55:58;;;;;;;2.60;1.40;;;;;;;34.53;29.58;99765.20;105447;1254;61080;-64
2023/07/19 07:58:25;;;;;;;3.40;1.40;;;;;;;34.76;29.64;99762.23;105483;1256;72636;-62
2023/07/19 08:00:53;;;;;;;2.00;1.30;;;;;;;35.11;28.71;99764.98;105704;1253;60566;-65
2023/07/19 08:03:21;;;;;;;3.70;1.10;;;;;;;35.40;28.32;99765.50;105387;1255;60517;-66
2023/07/19 08:05:48;;;;;;;2.40;1.00;;;;;;;35.57;27.86;99761.52;105151;1256;65247;-63
2023/07/19 08:08:15;;;;;;;2.20;1.20;;;;;;;35.66;27.85;99757.25;105493;1253;60546;-62
2023/07/19 08:10:42;;;;;;;2.50;1.30;;;;;;;35.74;27.69;99762.50;105814;1254;63833;-64
2023/07/19 08:13:11;;;;;;;2.70;1.40;;;;;;;35.77;27.57;99767.58;105278;1256;60447;-63
2023/07/19 08:15:38;;;;;;;2.20;1.30;;;;;;;35.79;27.98;99769.23;105383;1253;60804;-63
2023/07/19 08:18:05;;;;;;;3.00;1.50;;;;;;;35.97;28.41;99767.18;105505;1256;65415;-63
2023/07/19 08:20:32;;;;;;;2.40;1.60;;;;;;;36.02;27.85;99765.24;105374;1256;60307;-66
2023/07/19 08:22:59;;;;;;;2.50;1.10;;;;;;;36.01;27.67;99761.89;105798;1252;64149;-68
2023/07/19 08:25:29;;;;;;;2.80;1.50;;;;;;;36.14;27.47;99761.07;105426;1256;60435;-65
2023/07/19 08:27:57;;;;;;;2.30;1.30;;;;;;;36.20;27.22;99759.83;105183;1253;60447;-66
2023/07/19 08:30:24;;;;;;;2.90;1.30;;;;;;;36.23;27.26;99756.84;105402;1253;65111;-63
2023/07/19 08:32:52;;;;;;;4.50;1.40;;;;;;;36.28;27.21;99756.52;105873;1252;60835;-64
2023/07/19 08:35:19;;;;;;;2.00;1.40;;;;;;;36.38;27.19;99755.63;105463;1255;63859;-65
2023/07/19 08:37:46;;;;;;;2.80;1.30;;;;;;;36.49;27.03;99756.09;105346;1256;60293;-63
2023/07/19 08:40:15;;;;;;;1.80;1.00;;;;;;;36.40;27.05;99758.06;105407;1253;60322;-63
2023/07/19 08:42:43;;;;;;;2.60;1.70;;;;;;;36.17;27.53;99757.91;105857;1253;64015;-67
2023/07/19 08:45:11;;;;;;;4.10;1.30;;;;;;;35.94;28.04;99754.35;105681;1253;59692;-66
2023/07/19 08:47:39;;;;;;;2.40;1.30;;;;;;;35.86;27.53;99757.47;105839;1251;64668;-63
2023/07/19 08:50:07;;;;;;;2.30;1.50;;;;;;;35.73;27.50;99753.17;105670;1255;60506;-64
2023/07/19 08:52:35;;;;;;;3.00;1.50;;;;;;;35.76;27.32;99755.23;105535;1253;60427;-64
2023/07/19 08:55:03;;;;;;;4.20;1.50;;;;;;;35.88;26.94;99755.80;105524;1253;64083;-67
2023/07/19 08:57:30;;;;;;;2.30;1.20;;;;;;;36.00;26.78;99753.73;105465;1254;60406;-64
2023/07/19 08:59:57;;;;;;;2.80;1.30;;;;;;;36.17;27.11;99753.03;105257;1258;63993;-63
2023/07/19 09:02:25;;;;;;;2.20;0.90;;;;;;;36.33;26.98;99755.80;105486;1252;60420;-62
2023/07/19 09:05:14;;;;;;;2.00;1.40;;;;;;;36.38;26.37;99755.95;105902;1252;60533;-67
2023/07/19 09:07:41;;;;;;;1.60;1.10;;;;;;;36.32;26.18;99748.89;105607;1251;63816;-63
2023/07/19 09:10:09;;;;;;;2.30;1.10;;;;;;;36.30;26.46;99750.02;105764;1252;60456;-63
2023/07/19 09:12:41;;;;;;;2.00;1.40;;;;;;;36.37;25.93;99749.88;105515;1255;63883;-62
2023/07/19 09:15:09;;;;;;;2.00;1.00;;;;;;;36.41;25.76;99744.82;105938;1252;60428;-66
2023/07/19 09:17:41;;;;;;;1.80;1.10;;;;;;;36.34;25.99;99745.42;105461;1256;60375;-64
2023/07/19 09:20:09;;;;;;;2.10;1.30;;;;;;;36.33;26.34;99745.96;105411;1253;63998;-63
2023/07/19 09:22:37;;;;;;;2.10;0.90;;;;;;;36.44;25.72;99742.20;105685;1256;60592;-63
2023/07/19 09:25:05;;;;;;;2.40;1.50;;;;;;;36.46;25.86;99734.48;105883;1256;64040;-67
2023/07/19 09:27:33;;;;;;;1.60;1.30;;;;;;;36.35;25.44;99739.93;105459;1254;60445;-64
2023/07/19 09:30:03;;;;;;;2.80;1.70;;;;;;;36.20;25.05;99737.11;105570;1254;60417;-63
2023/07/19 09:32:30;;;;;;;1.60;1.30;;;;;;;36.09;25.46;99732.94;105795;1254;64148;-64
2023/07/19 09:35:00;;;;;;;3.10;1.40;;;;;;;36.00;25.74;99737.61;106493;1251;59095;-66
2023/07/19 09:37:27;;;;;;;2.10;1.40;;;;;;;35.92;25.90;99736.33;105486;1251;62742;-63
2023/07/19 09:39:54;;;;;;;2.00;1.30;;;;;;;35.89;25.62;99735.73;105309;1255;60419;-63
2023/07/19 09:42:21;;;;;;;1.70;1.20;;;;;;;35.74;25.09;99732.73;105479;1253;60315;-63
2023/07/19 09:44:48;;;;;;;3.70;1.40;;;;;;;35.44;25.88;99726.84;105401;1252;64070;-64
2023/07/19 09:47:15;;;;;;;3.20;1.30;;;;;;;35.28;26.14;99724.80;105471;1256;65730;-65
2023/07/19 09:49:55;;;;;;;2.50;1.60;;;;;;;35.33;26.49;99726.27;105401;1256;72750;-63
2023/07/19 09:52:24;;;;;;;2.90;1.30;;;;;;;35.32;26.60;99720.22;105402;1254;60430;-64
2023/07/19 09:54:51;;;;;;;2.30;1.30;;;;;;;35.40;26.76;99720.27;106044;1254;60451;-67
2023/07/19 09:57:18;;;;;;;1.90;1.40;;;;;;;35.45;26.43;99718.02;105535;1255;65794;-63
2023/07/19 09:59:49;;;;;;;2.60;1.50;;;;;;;35.26;26.30;99716.63;105201;1258;60374;-64
2023/07/19 10:02:16;;;;;;;3.20;1.70;;;;;;;35.09;27.16;99715.96;105403;1251;64230;-63
2023/07/19 10:04:44;;;;;;;2.50;1.20;;;;;;;35.15;27.56;99711.89;105600;1251;60533;-67
2023/07/19 10:07:12;;;;;;;4.80;1.40;;;;;;;35.16;26.86;99709.49;105441;1254;60346;-64
2023/07/19 10:09:41;;;;;;;2.70;1.30;;;;;;;35.17;26.90;99715.88;105355;1253;72468;-63
2023/07/19 10:12:15;;;;;;;2.70;1.50;;;;;;;35.24;26.46;99715.84;105362;1258;60419;-63
2023/07/19 10:15:00;;;;;;;3.80;1.60;;;;;;;35.25;26.69;99709.81;105202;1258;64179;-63
2023/07/19 10:17:29;;;;;;;2.20;1.40;;;;;;;35.21;27.07;99711.13;105101;1256;60888;-64
2023/07/19 10:19:57;;;;;;;3.40;1.30;;;;;;;35.18;26.39;99711.23;105318;1253;60712;-63
2023/07/19 10:22:47;;;;;;;3.10;1.50;;;;;;;35.17;26.02;99708.50;105422;1253;72660;-64
2023/07/19 10:25:15;;;;;;;2.10;1.30;;;;;;;35.20;26.27;99708.19;105329;1256;60445;-63
2023/07/19 10:27:42;;;;;;;2.90;1.30;;;;;;;35.23;26.20;99703.67;105247;1253;64165;-63
2023/07/19 10:30:10;;;;;;;2.70;1.40;;;;;;;35.22;26.43;99701.72;105171;1254;61030;-63
2023/07/19 10:32:37;;;;;;;2.10;1.30;;;;;;;35.19;26.49;99700.02;105949;1256;60848;-66
2023/07/19 10:35:04;;;;;;;2.90;1.40;;;;;;;35.00;26.56;99705.58;105915;1252;65792;-65
2023/07/19 10:37:33;;;;;;;2.20;1.30;;;;;;;34.76;26.79;99700.28;105450;1253;67015;-64
2023/07/19 10:40:00;;;;;;;2.30;1.40;;;;;;;34.64;26.88;99705.17;105408;1253;72746;-62
2023/07/19 10:42:27;;;;;;;1.90;1.30;;;;;;;34.33;26.85;99704.08;105461;1252;60450;-62
2023/07/19 10:44:56;;;;;;;3.20;1.30;;;;;;;33.81;27.51;99701.40;105753;1254;60531;-67
2023/07/19 10:47:23;;;;;;;2.70;1.60;;;;;;;33.04;28.59;99706.58;105157;1254;74390;-62
2023/07/19 10:49:50;;;;;;;3.60;1.40;;;;;;;32.53;29.29;99706.04;105482;1256;60518;-63
2023/07/19 10:52:20;;;;;;;3.00;1.60;;;;;;;32.06;30.62;99710.02;105204;1254;72601;-64
2023/07/19 10:54:54;;;;;;;3.50;1.30;;;;;;;32.01;31.46;99699.07;105936;1253;61064;-67
2023/07/19 10:57:41;;;;;;;3.20;1.50;;;;;;;32.30;32.49;99697.45;105311;1256;60517;-62
2023/07/19 11:00:12;;;;;;;1.60;1.20;;;;;;;32.65;31.89;99691.27;105370;1254;72577;-63
2023/07/19 11:02:43;;;;;;;2.00;1.40;;;;;;;32.73;31.12;99691.27;105686;1254;67782;-62
2023/07/19 11:05:11;;;;;;;4.00;1.50;;;;;;;32.42;30.82;99695.02;105805;1251;72399;-61
2023/07/19 11:07:39;;;;;;;2.30;1.10;;;;;;;32.13;31.83;99697.44;107248;1251;60418;-64
2023/07/19 11:10:06;;;;;;;2.50;1.50;;;;;;;32.19;32.42;99690.37;105674;1252;60322;-63
2023/07/19 11:12:34;;;;;;;4.00;1.40;;;;;;;32.30;31.85;99693.89;105928;1259;73892;-68
2023/07/19 11:15:01;;;;;;;2.10;1.30;;;;;;;32.14;31.88;99689.91;105447;1252;67503;-61
2023/07/19 11:17:29;;;;;;;2.20;1.40;;;;;;;31.89;32.29;99695.64;105531;1251;72743;-63
2023/07/19 11:19:57;;;;;;;2.40;1.40;;;;;;;31.67;32.17;99693.81;105382;1257;60948;-64
2023/07/19 11:22:26;;;;;;;1.50;1.30;;;;;;;31.53;33.17;99687.73;105446;1256;60335;-65
2023/07/19 11:24:53;;;;;;;2.60;1.60;;;;;;;31.47;34.01;99690.27;105629;1256;74379;-68
2023/07/19 11:27:38;;;;;;;2.40;1.30;;;;;;;31.30;34.52;99691.77;105354;1257;65843;-62
2023/07/19 11:30:06;;;;;;;2.10;1.30;;;;;;;31.07;35.62;99686.61;105334;1256;72780;-63
2023/07/19 11:32:33;;;;;;;2.00;1.40;;;;;;;30.91;35.97;99687.23;105660;1256;61313;-67
2023/07/19 11:35:01;;;;;;;4.40;1.40;;;;;;;30.78;37.69;99684.34;105517;1254;60425;-62